PWSweather.com
Personal Weather Stations
Station Observations
KNHRINDG3
Converse Meadow Pond, Rindge, NH 03461

Converse Meadow PondRindge, NH 03461

Lat: 42.74, Lon: -71.98

Elevation: 1060

Station Type: Davis Vantage Pro 2

http://nhwoodworker.com/weather/index.php

Latest ConditionsUpdated 9:10:03 AM EDT Tuesday, Jul 28, 2015
Currently Today's Max Today's Min Today's Average
Temperature 70.4°F21.3°C 70.4°F21.3°C 61.5°F16.4°C 64.1°F17.8°C
Dew Point 69.2°F20.7°C 69.2°F20.7°C 60.9°F16.1°C 63.6°F17.6°C
Winds Calm Calm Calm SSWCalm SSW - Calm Calm
Wind Gusts 1.2 mph1.9 kmh 1.2 mph1.9 kmh - -
Humidity 96% 99% 96% 98%
Pressure 29.95 in1014.2 mb 29.97 in1014.9 mb 29.95 in1014.2 mb -
Precipitation - 0.01 in0.3 mm - -
Hour Temp Dew Point Humidity Winds Wind Gusts Pressure Precip Precip Rate Daily Precip Total
09:10 AM 70.4°F21.3°C 69.2°F20.7°C 96% Calm Calm 1.2 mph1.9 kmh 29.95 in1014.2 mb - 0.00 in0.0 mm 0.01 in0.3 mm
09:00 AM 69.6°F20.9°C 68.7°F20.4°C 97% Calm Calm 1.2 mph1.9 kmh 29.95 in1014.2 mb - 0.00 in0.0 mm 0.01 in0.3 mm
08:50 AM 68.9°F20.5°C 68.3°F20.2°C 98% Calm Calm 1.2 mph1.9 kmh 29.95 in1014.2 mb - 0.00 in0.0 mm 0.01 in0.3 mm
08:40 AM 68.6°F20.3°C 68.0°F20.0°C 98% Calm Calm 1.2 mph1.9 kmh 29.95 in1014.2 mb - 0.00 in0.0 mm 0.01 in0.3 mm
08:30 AM 68.6°F20.3°C 68.3°F20.2°C 99% Calm Calm 1.2 mph1.9 kmh 29.95 in1014.2 mb - 0.00 in0.0 mm 0.01 in0.3 mm
08:20 AM 68.2°F20.1°C 67.9°F19.9°C 99% Calm Calm -- 29.95 in1014.2 mb - 0.00 in0.0 mm 0.01 in0.3 mm
08:10 AM 67.9°F19.9°C 67.6°F19.8°C 99% Calm Calm 1.2 mph1.9 kmh 29.95 in1014.2 mb - 0.00 in0.0 mm 0.01 in0.3 mm
08:00 AM 67.7°F19.8°C 67.4°F19.7°C 99% Calm Calm 1.2 mph1.9 kmh 29.95 in1014.2 mb - 0.00 in0.0 mm 0.01 in0.3 mm
07:50 AM 67.3°F19.6°C 67.0°F19.4°C 99% Calm Calm -- 29.96 in1014.6 mb - 0.00 in0.0 mm 0.01 in0.3 mm
07:40 AM 67.1°F19.5°C 66.8°F19.3°C 99% Calm Calm -- 29.96 in1014.6 mb - 0.00 in0.0 mm 0.01 in0.3 mm
07:30 AM 66.7°F19.3°C 66.4°F19.1°C 99% Calm Calm -- 29.96 in1014.6 mb - 0.00 in0.0 mm 0.01 in0.3 mm
07:20 AM 66.4°F19.1°C 66.1°F18.9°C 99% Calm Calm -- 29.96 in1014.6 mb - 0.00 in0.0 mm 0.01 in0.3 mm
07:10 AM 66.0°F18.9°C 65.7°F18.7°C 99% Calm Calm 1.2 mph1.9 kmh 29.97 in1014.9 mb - 0.00 in0.0 mm 0.01 in0.3 mm
07:00 AM 65.7°F18.7°C 65.4°F18.6°C 99% Calm Calm -- 29.97 in1014.9 mb - 0.00 in0.0 mm 0.01 in0.3 mm
06:50 AM 65.0°F18.3°C 64.7°F18.2°C 99% Calm Calm -- 29.97 in1014.9 mb - 0.00 in0.0 mm 0.01 in0.3 mm
06:40 AM 64.6°F18.1°C 64.3°F17.9°C 99% Calm Calm -- 29.96 in1014.6 mb - 0.00 in0.0 mm 0.01 in0.3 mm
06:30 AM 64.4°F18.0°C 64.1°F17.8°C 99% Calm Calm -- 29.97 in1014.9 mb - 0.00 in0.0 mm 0.01 in0.3 mm
06:20 AM 63.8°F17.7°C 63.5°F17.5°C 99% Calm Calm -- 29.97 in1014.9 mb - 0.00 in0.0 mm 0.01 in0.3 mm
06:10 AM 63.4°F17.4°C 63.1°F17.3°C 99% Calm Calm -- 29.96 in1014.6 mb - 0.00 in0.0 mm 0.01 in0.3 mm
06:00 AM 63.2°F17.3°C 62.9°F17.2°C 99% Calm Calm -- 29.96 in1014.6 mb - 0.00 in0.0 mm 0.01 in0.3 mm
05:50 AM 63.1°F17.3°C 62.8°F17.1°C 99% Calm Calm -- 29.95 in1014.2 mb - 0.00 in0.0 mm 0.01 in0.3 mm
05:40 AM 62.8°F17.1°C 62.5°F16.9°C 99% Calm Calm -- 29.96 in1014.6 mb - 0.00 in0.0 mm 0.01 in0.3 mm
05:30 AM 62.5°F16.9°C 62.2°F16.8°C 99% Calm Calm -- 29.95 in1014.2 mb - 0.00 in0.0 mm 0.01 in0.3 mm
05:20 AM 62.3°F16.8°C 62.0°F16.7°C 99% Calm Calm -- 29.95 in1014.2 mb - 0.00 in0.0 mm 0.01 in0.3 mm
05:10 AM 62.1°F16.7°C 61.8°F16.6°C 99% Calm Calm -- 29.95 in1014.2 mb - 0.00 in0.0 mm 0.01 in0.3 mm
05:00 AM 62.0°F16.7°C 61.7°F16.5°C 99% Calm Calm -- 29.95 in1014.2 mb - 0.00 in0.0 mm 0.01 in0.3 mm
04:50 AM 61.8°F16.6°C 61.5°F16.4°C 99% Calm Calm -- 29.96 in1014.6 mb - 0.00 in0.0 mm 0.01 in0.3 mm
04:40 AM 61.6°F16.4°C 61.0°F16.1°C 98% Calm Calm -- 29.95 in1014.2 mb - 0.00 in0.0 mm 0.01 in0.3 mm
04:30 AM 61.6°F16.4°C 61.0°F16.1°C 98% Calm Calm -- 29.95 in1014.2 mb - 0.00 in0.0 mm 0.01 in0.3 mm
04:20 AM 61.6°F16.4°C 61.0°F16.1°C 98% Calm Calm -- 29.95 in1014.2 mb - 0.00 in0.0 mm 0.01 in0.3 mm
04:10 AM 61.5°F16.4°C 60.9°F16.1°C 98% Calm Calm -- 29.95 in1014.2 mb - 0.00 in0.0 mm 0.01 in0.3 mm
04:00 AM 61.6°F16.4°C 61.0°F16.1°C 98% Calm Calm -- 29.95 in1014.2 mb - 0.00 in0.0 mm 0.01 in0.3 mm
03:50 AM 61.8°F16.6°C 61.2°F16.2°C 98% Calm Calm -- 29.95 in1014.2 mb - 0.00 in0.0 mm 0.01 in0.3 mm
03:40 AM 62.0°F16.7°C 61.4°F16.3°C 98% Calm Calm -- 29.95 in1014.2 mb - 0.00 in0.0 mm 0.01 in0.3 mm
03:30 AM 62.1°F16.7°C 61.5°F16.4°C 98% Calm Calm -- 29.95 in1014.2 mb - 0.00 in0.0 mm 0.01 in0.3 mm
03:20 AM 62.2°F16.8°C 61.6°F16.4°C 98% Calm Calm -- 29.96 in1014.6 mb - 0.00 in0.0 mm 0.01 in0.3 mm
03:10 AM 62.3°F16.8°C 61.8°F16.6°C 98% Calm Calm -- 29.96 in1014.6 mb - 0.00 in0.0 mm 0.01 in0.3 mm
03:00 AM 62.5°F16.9°C 61.9°F16.6°C 98% Calm Calm -- 29.96 in1014.6 mb - 0.00 in0.0 mm 0.01 in0.3 mm
02:50 AM 62.5°F16.9°C 61.9°F16.6°C 98% Calm Calm -- 29.97 in1014.9 mb - 0.00 in0.0 mm 0.01 in0.3 mm
02:40 AM 62.6°F17.0°C 62.0°F16.7°C 98% Calm Calm -- 29.97 in1014.9 mb - 0.00 in0.0 mm 0.01 in0.3 mm
02:30 AM 62.5°F16.9°C 61.9°F16.6°C 98% Calm Calm -- 29.97 in1014.9 mb - 0.00 in0.0 mm 0.01 in0.3 mm
02:20 AM 62.5°F16.9°C 61.9°F16.6°C 98% Calm Calm -- 29.97 in1014.9 mb - 0.01 in0.3 mm 0.01 in0.3 mm
02:10 AM 62.5°F16.9°C 61.9°F16.6°C 98% Calm Calm -- 29.97 in1014.9 mb - 0.00 in0.0 mm 0.00 in0.0 mm
02:00 AM 62.6°F17.0°C 62.0°F16.7°C 98% Calm Calm -- 29.97 in1014.9 mb - 0.00 in0.0 mm 0.00 in0.0 mm
01:50 AM 62.6°F17.0°C 62.0°F16.7°C 98% Calm Calm -- 29.97 in1014.9 mb - 0.00 in0.0 mm 0.00 in0.0 mm
01:40 AM 62.7°F17.1°C 61.9°F16.6°C 97% Calm Calm -- 29.97 in1014.9 mb - 0.00 in0.0 mm 0.00 in0.0 mm
01:30 AM 63.0°F17.2°C 62.1°F16.7°C 97% Calm Calm -- 29.97 in1014.9 mb - 0.00 in0.0 mm 0.00 in0.0 mm
01:20 AM 63.2°F17.3°C 62.3°F16.8°C 97% Calm Calm -- 29.97 in1014.9 mb - 0.00 in0.0 mm 0.00 in0.0 mm
01:10 AM 63.5°F17.5°C 62.6°F17.0°C 97% Calm Calm -- 29.97 in1014.9 mb - 0.00 in0.0 mm 0.00 in0.0 mm
01:00 AM 63.7°F17.6°C 62.9°F17.2°C 97% Calm Calm -- 29.97 in1014.9 mb - 0.00 in0.0 mm 0.00 in0.0 mm
12:40 AM 64.2°F17.9°C 63.3°F17.4°C 97% Calm Calm -- 29.97 in1014.9 mb - 0.00 in0.0 mm 0.00 in0.0 mm
12:30 AM 64.5°F18.1°C 63.6°F17.6°C 97% Calm Calm -- 29.96 in1014.6 mb - 0.00 in0.0 mm 0.00 in0.0 mm
12:20 AM 64.7°F18.2°C 63.8°F17.7°C 97% Calm Calm -- 29.96 in1014.6 mb - 0.00 in0.0 mm 0.00 in0.0 mm
12:10 AM 64.9°F18.3°C 63.8°F17.7°C 96% Calm Calm -- 29.96 in1014.6 mb - 0.00 in0.0 mm 0.00 in0.0 mm
12:00 AM 65.1°F18.4°C 64.3°F17.9°C 97% Calm Calm -- 29.96 in1014.6 mb - 0.00 in0.0 mm 0.00 in0.0 mm